sensor_id;sensor_type;location;lat;lon;timestamp;P1;durP1;ratioP1;P2;durP2;ratioP2
74616;SDS011;63123;50.906;4.198;2023-04-01T00:01:57;4.43;;;1.30;;
74616;SDS011;63123;50.906;4.198;2023-04-01T00:04:23;2.58;;;1.20;;
74616;SDS011;63123;50.906;4.198;2023-04-01T00:06:48;2.15;;;1.00;;
74616;SDS011;63123;50.906;4.198;2023-04-01T00:09:14;2.50;;;1.10;;
74616;SDS011;63123;50.906;4.198;2023-04-01T00:11:40;3.17;;;1.60;;
74616;SDS011;63123;50.906;4.198;2023-04-01T00:14:06;2.10;;;1.48;;
74616;SDS011;63123;50.906;4.198;2023-04-01T00:16:32;1.92;;;1.30;;
74616;SDS011;63123;50.906;4.198;2023-04-01T00:18:58;2.30;;;1.35;;
74616;SDS011;63123;50.906;4.198;2023-04-01T00:21:25;3.10;;;1.33;;
74616;SDS011;63123;50.906;4.198;2023-04-01T00:23:51;2.33;;;1.25;;
74616;SDS011;63123;50.906;4.198;2023-04-01T00:26:16;1.38;;;0.80;;
74616;SDS011;63123;50.906;4.198;2023-04-01T00:28:45;3.15;;;1.50;;
74616;SDS011;63123;50.906;4.198;2023-04-01T00:31:12;2.75;;;1.13;;
74616;SDS011;63123;50.906;4.198;2023-04-01T00:33:38;2.22;;;1.30;;
74616;SDS011;63123;50.906;4.198;2023-04-01T00:36:14;1.90;;;1.25;;
74616;SDS011;63123;50.906;4.198;2023-04-01T00:38:42;1.95;;;1.02;;
74616;SDS011;63123;50.906;4.198;2023-04-01T00:41:08;2.22;;;1.08;;
74616;SDS011;63123;50.906;4.198;2023-04-01T00:43:41;1.98;;;0.82;;
74616;SDS011;63123;50.906;4.198;2023-04-01T00:46:07;2.08;;;1.15;;
74616;SDS011;63123;50.906;4.198;2023-04-01T00:48:33;2.05;;;1.00;;
74616;SDS011;63123;50.906;4.198;2023-04-01T00:53:40;2.05;;;1.10;;
74616;SDS011;63123;50.906;4.198;2023-04-01T00:56:10;1.50;;;0.70;;
74616;SDS011;63123;50.906;4.198;2023-04-01T00:58:51;1.88;;;1.42;;
74616;SDS011;63123;50.906;4.198;2023-04-01T01:01:22;2.20;;;1.15;;
74616;SDS011;63123;50.906;4.198;2023-04-01T01:03:49;2.00;;;0.93;;
74616;SDS011;63123;50.906;4.198;2023-04-01T01:09:03;2.83;;;1.33;;
74616;SDS011;63123;50.906;4.198;2023-04-01T01:12:03;1.48;;;0.80;;
74616;SDS011;63123;50.906;4.198;2023-04-01T01:20:31;1.63;;;0.93;;
74616;SDS011;63123;50.906;4.198;2023-04-01T01:28:59;2.67;;;1.20;;
74616;SDS011;63123;50.906;4.198;2023-04-01T01:36:57;2.30;;;1.27;;
74616;SDS011;63123;50.906;4.198;2023-04-01T01:39:30;2.13;;;1.27;;
74616;SDS011;63123;50.906;4.198;2023-04-01T01:42:00;1.52;;;1.10;;
74616;SDS011;63123;50.906;4.198;2023-04-01T01:44:29;1.60;;;0.90;;
74616;SDS011;63123;50.906;4.198;2023-04-01T01:46:56;1.67;;;1.30;;
74616;SDS011;63123;50.906;4.198;2023-04-01T01:49:23;2.40;;;1.20;;
74616;SDS011;63123;50.906;4.198;2023-04-01T01:51:50;1.35;;;0.80;;
74616;SDS011;63123;50.906;4.198;2023-04-01T01:54:16;2.08;;;1.50;;
74616;SDS011;63123;50.906;4.198;2023-04-01T01:56:44;1.85;;;1.08;;
74616;SDS011;63123;50.906;4.198;2023-04-01T01:59:12;1.77;;;1.23;;
74616;SDS011;63123;50.906;4.198;2023-04-01T02:01:41;2.13;;;1.00;;
74616;SDS011;63123;50.906;4.198;2023-04-01T02:04:09;1.38;;;1.23;;
74616;SDS011;63123;50.906;4.198;2023-04-01T02:06:37;1.75;;;1.25;;
74616;SDS011;63123;50.906;4.198;2023-04-01T02:09:07;2.28;;;1.10;;
74616;SDS011;63123;50.906;4.198;2023-04-01T02:11:41;1.45;;;1.10;;
74616;SDS011;63123;50.906;4.198;2023-04-01T02:14:25;2.17;;;1.05;;
74616;SDS011;63123;50.906;4.198;2023-04-01T02:19:36;2.42;;;1.27;;
74616;SDS011;63123;50.906;4.198;2023-04-01T02:22:11;2.45;;;1.45;;
74616;SDS011;63123;50.906;4.198;2023-04-01T02:24:41;1.85;;;1.17;;
74616;SDS011;63123;50.906;4.198;2023-04-01T02:27:09;1.95;;;1.23;;
74616;SDS011;63123;50.906;4.198;2023-04-01T02:29:35;2.25;;;1.08;;
74616;SDS011;63123;50.906;4.198;2023-04-01T02:32:01;1.77;;;0.95;;
74616;SDS011;63123;50.906;4.198;2023-04-01T02:34:28;1.60;;;1.25;;
74616;SDS011;63123;50.906;4.198;2023-04-01T02:36:54;1.65;;;1.00;;
74616;SDS011;63123;50.906;4.198;2023-04-01T02:39:21;1.23;;;0.95;;
74616;SDS011;63123;50.906;4.198;2023-04-01T02:41:47;2.63;;;1.50;;
74616;SDS011;63123;50.906;4.198;2023-04-01T02:44:14;1.48;;;0.90;;
74616;SDS011;63123;50.906;4.198;2023-04-01T02:46:40;1.48;;;0.85;;
74616;SDS011;63123;50.906;4.198;2023-04-01T02:49:06;1.30;;;0.90;;
74616;SDS011;63123;50.906;4.198;2023-04-01T02:51:33;2.45;;;1.25;;
74616;SDS011;63123;50.906;4.198;2023-04-01T02:53:58;1.98;;;1.00;;
74616;SDS011;63123;50.906;4.198;2023-04-01T02:56:24;2.63;;;1.30;;
74616;SDS011;63123;50.906;4.198;2023-04-01T02:58:51;2.03;;;1.10;;
74616;SDS011;63123;50.906;4.198;2023-04-01T03:01:17;1.35;;;1.00;;
74616;SDS011;63123;50.906;4.198;2023-04-01T03:03:43;1.52;;;1.05;;
74616;SDS011;63123;50.906;4.198;2023-04-01T03:06:09;2.15;;;1.20;;
74616;SDS011;63123;50.906;4.198;2023-04-01T03:08:37;1.63;;;1.05;;
74616;SDS011;63123;50.906;4.198;2023-04-01T03:11:03;1.52;;;1.05;;
74616;SDS011;63123;50.906;4.198;2023-04-01T03:13:29;1.52;;;1.00;;
74616;SDS011;63123;50.906;4.198;2023-04-01T03:15:55;1.23;;;1.00;;
74616;SDS011;63123;50.906;4.198;2023-04-01T03:18:20;2.05;;;1.38;;
74616;SDS011;63123;50.906;4.198;2023-04-01T03:20:46;1.20;;;1.00;;
74616;SDS011;63123;50.906;4.198;2023-04-01T03:23:12;2.10;;;1.30;;
74616;SDS011;63123;50.906;4.198;2023-04-01T03:25:37;1.92;;;1.50;;
74616;SDS011;63123;50.906;4.198;2023-04-01T03:28:03;1.90;;;1.50;;
74616;SDS011;63123;50.906;4.198;2023-04-01T03:30:29;2.53;;;1.65;;
74616;SDS011;63123;50.906;4.198;2023-04-01T03:32:56;2.63;;;1.42;;
74616;SDS011;63123;50.906;4.198;2023-04-01T03:35:22;2.55;;;1.35;;
74616;SDS011;63123;50.906;4.198;2023-04-01T03:37:48;2.95;;;1.63;;
74616;SDS011;63123;50.906;4.198;2023-04-01T03:40:15;1.85;;;1.38;;
74616;SDS011;63123;50.906;4.198;2023-04-01T03:42:40;2.45;;;1.70;;
74616;SDS011;63123;50.906;4.198;2023-04-01T03:45:06;2.50;;;1.48;;
74616;SDS011;63123;50.906;4.198;2023-04-01T03:47:32;1.92;;;1.70;;
74616;SDS011;63123;50.906;4.198;2023-04-01T03:49:58;2.15;;;1.70;;
74616;SDS011;63123;50.906;4.198;2023-04-01T03:52:24;2.42;;;1.80;;
74616;SDS011;63123;50.906;4.198;2023-04-01T03:54:50;1.92;;;1.50;;
74616;SDS011;63123;50.906;4.198;2023-04-01T03:57:16;2.88;;;1.80;;
74616;SDS011;63123;50.906;4.198;2023-04-01T03:59:41;1.90;;;1.55;;
74616;SDS011;63123;50.906;4.198;2023-04-01T04:02:07;2.70;;;1.63;;
74616;SDS011;63123;50.906;4.198;2023-04-01T04:04:32;1.67;;;1.30;;
74616;SDS011;63123;50.906;4.198;2023-04-01T04:06:58;2.22;;;1.67;;
74616;SDS011;63123;50.906;4.198;2023-04-01T04:09:24;1.60;;;1.42;;
74616;SDS011;63123;50.906;4.198;2023-04-01T04:11:50;2.65;;;1.50;;
74616;SDS011;63123;50.906;4.198;2023-04-01T04:14:15;1.40;;;1.30;;
74616;SDS011;63123;50.906;4.198;2023-04-01T04:16:41;2.22;;;1.73;;
74616;SDS011;63123;50.906;4.198;2023-04-01T04:19:07;2.05;;;1.65;;
74616;SDS011;63123;50.906;4.198;2023-04-01T04:21:33;1.98;;;1.77;;
74616;SDS011;63123;50.906;4.198;2023-04-01T04:23:59;1.35;;;1.10;;
74616;SDS011;63123;50.906;4.198;2023-04-01T04:26:26;1.88;;;1.60;;
74616;SDS011;63123;50.906;4.198;2023-04-01T04:28:51;1.80;;;1.17;;
74616;SDS011;63123;50.906;4.198;2023-04-01T04:31:19;2.35;;;1.40;;
74616;SDS011;63123;50.906;4.198;2023-04-01T04:33:46;1.08;;;0.98;;
74616;SDS011;63123;50.906;4.198;2023-04-01T04:36:12;1.85;;;1.33;;
74616;SDS011;63123;50.906;4.198;2023-04-01T04:38:38;1.70;;;1.15;;
74616;SDS011;63123;50.906;4.198;2023-04-01T04:41:07;2.30;;;1.08;;
74616;SDS011;63123;50.906;4.198;2023-04-01T04:43:37;1.70;;;0.90;;
74616;SDS011;63123;50.906;4.198;2023-04-01T04:46:13;0.90;;;0.75;;
74616;SDS011;63123;50.906;4.198;2023-04-01T04:51:04;1.20;;;1.00;;
74616;SDS011;63123;50.906;4.198;2023-04-01T04:53:30;1.98;;;0.90;;
74616;SDS011;63123;50.906;4.198;2023-04-01T04:55:55;1.02;;;0.93;;
74616;SDS011;63123;50.906;4.198;2023-04-01T04:58:21;1.02;;;0.80;;
74616;SDS011;63123;50.906;4.198;2023-04-01T05:00:46;1.52;;;1.02;;
74616;SDS011;63123;50.906;4.198;2023-04-01T05:03:12;1.95;;;1.25;;
74616;SDS011;63123;50.906;4.198;2023-04-01T05:05:38;1.00;;;0.90;;
74616;SDS011;63123;50.906;4.198;2023-04-01T05:08:04;1.13;;;0.70;;
74616;SDS011;63123;50.906;4.198;2023-04-01T05:10:31;1.75;;;1.42;;
74616;SDS011;63123;50.906;4.198;2023-04-01T05:12:57;1.77;;;0.77;;
74616;SDS011;63123;50.906;4.198;2023-04-01T05:15:23;1.38;;;1.17;;
74616;SDS011;63123;50.906;4.198;2023-04-01T05:17:49;1.27;;;1.13;;
74616;SDS011;63123;50.906;4.198;2023-04-01T05:20:15;1.10;;;1.00;;
74616;SDS011;63123;50.906;4.198;2023-04-01T05:22:42;1.88;;;1.33;;
74616;SDS011;63123;50.906;4.198;2023-04-01T05:25:08;1.75;;;1.17;;
74616;SDS011;63123;50.906;4.198;2023-04-01T05:27:34;2.35;;;1.13;;
74616;SDS011;63123;50.906;4.198;2023-04-01T05:30:00;1.27;;;1.10;;
74616;SDS011;63123;50.906;4.198;2023-04-01T05:32:26;1.85;;;1.30;;
74616;SDS011;63123;50.906;4.198;2023-04-01T05:34:51;1.33;;;1.17;;
74616;SDS011;63123;50.906;4.198;2023-04-01T05:37:18;1.40;;;1.20;;
74616;SDS011;63123;50.906;4.198;2023-04-01T05:39:44;1.80;;;1.00;;
74616;SDS011;63123;50.906;4.198;2023-04-01T05:42:09;1.50;;;1.25;;
74616;SDS011;63123;50.906;4.198;2023-04-01T05:44:35;1.83;;;1.60;;
74616;SDS011;63123;50.906;4.198;2023-04-01T05:47:01;1.70;;;1.23;;
74616;SDS011;63123;50.906;4.198;2023-04-01T05:49:27;1.65;;;1.30;;
74616;SDS011;63123;50.906;4.198;2023-04-01T05:51:53;1.67;;;1.33;;
74616;SDS011;63123;50.906;4.198;2023-04-01T05:54:19;2.33;;;1.40;;
74616;SDS011;63123;50.906;4.198;2023-04-01T05:56:45;2.03;;;1.38;;
74616;SDS011;63123;50.906;4.198;2023-04-01T05:59:11;1.63;;;1.52;;
74616;SDS011;63123;50.906;4.198;2023-04-01T06:01:37;3.08;;;1.73;;
74616;SDS011;63123;50.906;4.198;2023-04-01T06:04:02;2.63;;;1.88;;
74616;SDS011;63123;50.906;4.198;2023-04-01T06:06:29;2.28;;;1.50;;
74616;SDS011;63123;50.906;4.198;2023-04-01T06:23:10;2.00;;;1.80;;
74616;SDS011;63123;50.906;4.198;2023-04-01T06:31:43;2.28;;;1.80;;
74616;SDS011;63123;50.906;4.198;2023-04-01T06:34:49;2.08;;;1.50;;
74616;SDS011;63123;50.906;4.198;2023-04-01T06:51:47;2.13;;;1.83;;
74616;SDS011;63123;50.906;4.198;2023-04-01T06:54:44;2.35;;;2.00;;
74616;SDS011;63123;50.906;4.198;2023-04-01T07:00:13;1.10;;;1.00;;
74616;SDS011;63123;50.906;4.198;2023-04-01T07:02:45;1.55;;;1.40;;
74616;SDS011;63123;50.906;4.198;2023-04-01T07:05:18;1.83;;;1.27;;
74616;SDS011;63123;50.906;4.198;2023-04-01T07:07:45;1.50;;;1.40;;
74616;SDS011;63123;50.906;4.198;2023-04-01T07:10:17;1.17;;;1.02;;
74616;SDS011;63123;50.906;4.198;2023-04-01T07:12:48;1.55;;;1.42;;
74616;SDS011;63123;50.906;4.198;2023-04-01T07:15:21;1.05;;;0.95;;
74616;SDS011;63123;50.906;4.198;2023-04-01T07:17:54;1.40;;;1.08;;
74616;SDS011;63123;50.906;4.198;2023-04-01T07:20:25;1.23;;;1.10;;
74616;SDS011;63123;50.906;4.198;2023-04-01T07:22:59;1.42;;;1.10;;
74616;SDS011;63123;50.906;4.198;2023-04-01T07:25:35;1.20;;;0.95;;
74616;SDS011;63123;50.906;4.198;2023-04-01T07:28:06;0.70;;;0.70;;
74616;SDS011;63123;50.906;4.198;2023-04-01T07:30:44;0.80;;;0.80;;
74616;SDS011;63123;50.906;4.198;2023-04-01T07:33:33;1.25;;;0.80;;
74616;SDS011;63123;50.906;4.198;2023-04-01T07:36:13;0.88;;;0.63;;
74616;SDS011;63123;50.906;4.198;2023-04-01T07:38:43;1.10;;;0.90;;
74616;SDS011;63123;50.906;4.198;2023-04-01T07:46:59;1.23;;;0.60;;
74616;SDS011;63123;50.906;4.198;2023-04-01T07:52:30;1.17;;;0.93;;
74616;SDS011;63123;50.906;4.198;2023-04-01T07:57:50;1.02;;;0.70;;
74616;SDS011;63123;50.906;4.198;2023-04-01T08:11:13;1.13;;;0.85;;
74616;SDS011;63123;50.906;4.198;2023-04-01T08:13:47;0.95;;;0.73;;
74616;SDS011;63123;50.906;4.198;2023-04-01T08:21:56;1.92;;;0.90;;
74616;SDS011;63123;50.906;4.198;2023-04-01T08:24:33;0.80;;;0.60;;
74616;SDS011;63123;50.906;4.198;2023-04-01T08:27:03;1.50;;;0.55;;
74616;SDS011;63123;50.906;4.198;2023-04-01T08:29:41;0.50;;;0.50;;
74616;SDS011;63123;50.906;4.198;2023-04-01T08:32:42;0.50;;;0.50;;
74616;SDS011;63123;50.906;4.198;2023-04-01T08:35:29;0.70;;;0.60;;
74616;SDS011;63123;50.906;4.198;2023-04-01T08:37:58;0.57;;;0.57;;
74616;SDS011;63123;50.906;4.198;2023-04-01T08:46:36;0.82;;;0.70;;
74616;SDS011;63123;50.906;4.198;2023-04-01T08:49:20;0.93;;;0.60;;
74616;SDS011;63123;50.906;4.198;2023-04-01T09:00:51;0.73;;;0.50;;
74616;SDS011;63123;50.906;4.198;2023-04-01T09:03:37;1.45;;;1.35;;
74616;SDS011;63123;50.906;4.198;2023-04-01T09:25:38;0.60;;;0.60;;
74616;SDS011;63123;50.906;4.198;2023-04-01T09:28:28;1.00;;;0.90;;
74616;SDS011;63123;50.906;4.198;2023-04-01T09:31:26;0.80;;;0.77;;
74616;SDS011;63123;50.906;4.198;2023-04-01T09:54:36;1.00;;;0.82;;
74616;SDS011;63123;50.906;4.198;2023-04-01T10:12:09;1.05;;;0.85;;
74616;SDS011;63123;50.906;4.198;2023-04-01T10:20:20;0.95;;;0.73;;
74616;SDS011;63123;50.906;4.198;2023-04-01T10:23:20;0.98;;;0.73;;
74616;SDS011;63123;50.906;4.198;2023-04-01T10:32:04;1.83;;;0.70;;
74616;SDS011;63123;50.906;4.198;2023-04-01T10:34:40;0.80;;;0.70;;
74616;SDS011;63123;50.906;4.198;2023-04-01T10:54:21;0.50;;;0.50;;
74616;SDS011;63123;50.906;4.198;2023-04-01T10:57:19;0.60;;;0.60;;
74616;SDS011;63123;50.906;4.198;2023-04-01T11:05:52;0.65;;;0.50;;
74616;SDS011;63123;50.906;4.198;2023-04-01T11:39:29;3.53;;;1.02;;
74616;SDS011;63123;50.906;4.198;2023-04-01T11:47:10;1.75;;;0.52;;
74616;SDS011;63123;50.906;4.198;2023-04-01T11:52:31;1.05;;;0.60;;
74616;SDS011;63123;50.906;4.198;2023-04-01T11:55:24;0.52;;;0.52;;
74616;SDS011;63123;50.906;4.198;2023-04-01T11:58:06;1.45;;;0.50;;
74616;SDS011;63123;50.906;4.198;2023-04-01T12:03:42;1.10;;;0.80;;
74616;SDS011;63123;50.906;4.198;2023-04-01T12:09:35;0.97;;;0.70;;
74616;SDS011;63123;50.906;4.198;2023-04-01T12:12:14;1.08;;;0.80;;
74616;SDS011;63123;50.906;4.198;2023-04-01T12:15:03;0.80;;;0.60;;
74616;SDS011;63123;50.906;4.198;2023-04-01T12:20:50;1.20;;;0.80;;
74616;SDS011;63123;50.906;4.198;2023-04-01T12:23:28;1.25;;;0.88;;
74616;SDS011;63123;50.906;4.198;2023-04-01T12:40:02;0.98;;;0.60;;
74616;SDS011;63123;50.906;4.198;2023-04-01T12:42:52;1.48;;;0.80;;
74616;SDS011;63123;50.906;4.198;2023-04-01T12:57:14;0.75;;;0.60;;
74616;SDS011;63123;50.906;4.198;2023-04-01T13:05:30;0.77;;;0.60;;
74616;SDS011;63123;50.906;4.198;2023-04-01T13:21:33;0.63;;;0.55;;
74616;SDS011;63123;50.906;4.198;2023-04-01T13:32:06;1.83;;;0.80;;
74616;SDS011;63123;50.906;4.198;2023-04-01T13:38:02;0.75;;;0.63;;
74616;SDS011;63123;50.906;4.198;2023-04-01T13:40:34;0.60;;;0.60;;
74616;SDS011;63123;50.906;4.198;2023-04-01T13:43:21;2.25;;;0.90;;
74616;SDS011;63123;50.906;4.198;2023-04-01T13:51:23;1.55;;;1.17;;
74616;SDS011;63123;50.906;4.198;2023-04-01T13:54:18;0.65;;;0.63;;
74616;SDS011;63123;50.906;4.198;2023-04-01T14:05:32;1.02;;;0.70;;
74616;SDS011;63123;50.906;4.198;2023-04-01T14:13:23;0.75;;;0.70;;
74616;SDS011;63123;50.906;4.198;2023-04-01T14:21:23;0.60;;;0.50;;
74616;SDS011;63123;50.906;4.198;2023-04-01T14:32:16;1.55;;;0.90;;
74616;SDS011;63123;50.906;4.198;2023-04-01T14:35:09;0.70;;;0.70;;
74616;SDS011;63123;50.906;4.198;2023-04-01T14:49:32;1.30;;;0.80;;
74616;SDS011;63123;50.906;4.198;2023-04-01T14:54:59;1.25;;;0.70;;
74616;SDS011;63123;50.906;4.198;2023-04-01T14:57:30;0.95;;;0.73;;
74616;SDS011;63123;50.906;4.198;2023-04-01T15:16:34;0.70;;;0.70;;
74616;SDS011;63123;50.906;4.198;2023-04-01T15:22:09;1.92;;;0.77;;
74616;SDS011;63123;50.906;4.198;2023-04-01T15:25:00;1.58;;;0.60;;
74616;SDS011;63123;50.906;4.198;2023-04-01T15:27:50;1.15;;;0.90;;
74616;SDS011;63123;50.906;4.198;2023-04-01T15:30:48;1.33;;;0.60;;
74616;SDS011;63123;50.906;4.198;2023-04-01T15:36:24;0.70;;;0.63;;
74616;SDS011;63123;50.906;4.198;2023-04-01T15:46:55;0.75;;;0.65;;
74616;SDS011;63123;50.906;4.198;2023-04-01T15:51:54;0.82;;;0.68;;
74616;SDS011;63123;50.906;4.198;2023-04-01T15:54:31;0.88;;;0.70;;
74616;SDS011;63123;50.906;4.198;2023-04-01T16:13:22;0.80;;;0.70;;
74616;SDS011;63123;50.906;4.198;2023-04-01T16:18:50;0.80;;;0.70;;
74616;SDS011;63123;50.906;4.198;2023-04-01T16:23:58;0.93;;;0.60;;
74616;SDS011;63123;50.906;4.198;2023-04-01T16:34:21;1.40;;;0.73;;
74616;SDS011;63123;50.906;4.198;2023-04-01T16:37:14;1.30;;;0.80;;
74616;SDS011;63123;50.906;4.198;2023-04-01T16:40:03;1.80;;;0.90;;
74616;SDS011;63123;50.906;4.198;2023-04-01T16:42:49;0.98;;;0.85;;
74616;SDS011;63123;50.906;4.198;2023-04-01T16:45:21;1.20;;;0.68;;
74616;SDS011;63123;50.906;4.198;2023-04-01T16:48:11;1.02;;;0.93;;
74616;SDS011;63123;50.906;4.198;2023-04-01T16:55:42;1.02;;;0.93;;
74616;SDS011;63123;50.906;4.198;2023-04-01T16:58:09;1.40;;;0.70;;
74616;SDS011;63123;50.906;4.198;2023-04-01T17:00:49;1.00;;;0.67;;
74616;SDS011;63123;50.906;4.198;2023-04-01T17:03:22;1.30;;;1.02;;
74616;SDS011;63123;50.906;4.198;2023-04-01T17:11:14;1.38;;;1.00;;
74616;SDS011;63123;50.906;4.198;2023-04-01T17:22:15;1.15;;;0.70;;
74616;SDS011;63123;50.906;4.198;2023-04-01T17:27:52;1.67;;;1.10;;
74616;SDS011;63123;50.906;4.198;2023-04-01T17:30:59;0.95;;;0.65;;
74616;SDS011;63123;50.906;4.198;2023-04-01T17:33:43;0.77;;;0.70;;
74616;SDS011;63123;50.906;4.198;2023-04-01T17:36:41;1.17;;;0.98;;
74616;SDS011;63123;50.906;4.198;2023-04-01T17:39:19;0.80;;;0.75;;
74616;SDS011;63123;50.906;4.198;2023-04-01T17:42:03;1.63;;;1.00;;
74616;SDS011;63123;50.906;4.198;2023-04-01T17:47:28;0.80;;;0.80;;
74616;SDS011;63123;50.906;4.198;2023-04-01T17:50:09;1.67;;;0.90;;
74616;SDS011;63123;50.906;4.198;2023-04-01T17:55:33;1.50;;;1.00;;
74616;SDS011;63123;50.906;4.198;2023-04-01T17:58:28;1.42;;;1.05;;
74616;SDS011;63123;50.906;4.198;2023-04-01T18:01:13;0.70;;;0.70;;
74616;SDS011;63123;50.906;4.198;2023-04-01T18:09:38;2.13;;;1.23;;
74616;SDS011;63123;50.906;4.198;2023-04-01T18:12:16;1.35;;;1.20;;
74616;SDS011;63123;50.906;4.198;2023-04-01T18:15:05;1.23;;;1.00;;
74616;SDS011;63123;50.906;4.198;2023-04-01T18:17:41;1.20;;;0.98;;
74616;SDS011;63123;50.906;4.198;2023-04-01T18:25:52;1.13;;;1.02;;
74616;SDS011;63123;50.906;4.198;2023-04-01T18:38:57;1.55;;;1.27;;
74616;SDS011;63123;50.906;4.198;2023-04-01T18:41:32;2.10;;;1.48;;
74616;SDS011;63123;50.906;4.198;2023-04-01T18:50:14;1.67;;;1.57;;
74616;SDS011;63123;50.906;4.198;2023-04-01T18:52:43;1.40;;;1.30;;
74616;SDS011;63123;50.906;4.198;2023-04-01T18:58:12;1.63;;;1.52;;
74616;SDS011;63123;50.906;4.198;2023-04-01T19:00:51;2.33;;;2.03;;
74616;SDS011;63123;50.906;4.198;2023-04-01T19:09:20;2.00;;;1.90;;
74616;SDS011;63123;50.906;4.198;2023-04-01T19:14:35;2.10;;;2.00;;
74616;SDS011;63123;50.906;4.198;2023-04-01T19:17:14;3.00;;;2.70;;
74616;SDS011;63123;50.906;4.198;2023-04-01T19:25:38;3.22;;;2.92;;
74616;SDS011;63123;50.906;4.198;2023-04-01T19:31:24;4.22;;;3.28;;
74616;SDS011;63123;50.906;4.198;2023-04-01T19:40:01;4.45;;;3.88;;
74616;SDS011;63123;50.906;4.198;2023-04-01T19:45:29;3.40;;;3.10;;
74616;SDS011;63123;50.906;4.198;2023-04-01T19:48:21;4.05;;;3.05;;
74616;SDS011;63123;50.906;4.198;2023-04-01T19:56:49;5.35;;;3.33;;
74616;SDS011;63123;50.906;4.198;2023-04-01T20:04:36;4.25;;;3.75;;
74616;SDS011;63123;50.906;4.198;2023-04-01T20:07:15;4.07;;;3.72;;
74616;SDS011;63123;50.906;4.198;2023-04-01T20:09:51;3.80;;;3.50;;
74616;SDS011;63123;50.906;4.198;2023-04-01T20:15:06;3.72;;;3.30;;
74616;SDS011;63123;50.906;4.198;2023-04-01T20:17:57;4.43;;;3.45;;
74616;SDS011;63123;50.906;4.198;2023-04-01T20:20:26;3.70;;;3.22;;
74616;SDS011;63123;50.906;4.198;2023-04-01T20:26:07;3.15;;;2.85;;
74616;SDS011;63123;50.906;4.198;2023-04-01T20:29:00;3.92;;;3.20;;
74616;SDS011;63123;50.906;4.198;2023-04-01T20:31:29;3.83;;;3.53;;
74616;SDS011;63123;50.906;4.198;2023-04-01T20:34:15;3.15;;;2.85;;
74616;SDS011;63123;50.906;4.198;2023-04-01T20:37:02;3.13;;;2.60;;
74616;SDS011;63123;50.906;4.198;2023-04-01T20:42:29;3.42;;;2.67;;
74616;SDS011;63123;50.906;4.198;2023-04-01T20:48:09;4.15;;;3.47;;
74616;SDS011;63123;50.906;4.198;2023-04-01T20:50:50;3.00;;;2.70;;
74616;SDS011;63123;50.906;4.198;2023-04-01T20:53:23;3.95;;;3.55;;
74616;SDS011;63123;50.906;4.198;2023-04-01T21:01:44;4.22;;;3.83;;
74616;SDS011;63123;50.906;4.198;2023-04-01T21:04:30;4.38;;;3.97;;
74616;SDS011;63123;50.906;4.198;2023-04-01T21:07:21;6.05;;;4.68;;
74616;SDS011;63123;50.906;4.198;2023-04-01T21:13:21;4.78;;;4.38;;
74616;SDS011;63123;50.906;4.198;2023-04-01T21:19:11;4.57;;;4.20;;
74616;SDS011;63123;50.906;4.198;2023-04-01T21:29:45;4.80;;;3.92;;
74616;SDS011;63123;50.906;4.198;2023-04-01T21:51:24;3.60;;;3.30;;
74616;SDS011;63123;50.906;4.198;2023-04-01T21:54:16;3.90;;;3.50;;
74616;SDS011;63123;50.906;4.198;2023-04-01T22:00:07;3.83;;;3.53;;
74616;SDS011;63123;50.906;4.198;2023-04-01T22:08:24;4.40;;;3.88;;
74616;SDS011;63123;50.906;4.198;2023-04-01T22:13:32;3.97;;;3.58;;
74616;SDS011;63123;50.906;4.198;2023-04-01T22:32:34;4.28;;;3.88;;
74616;SDS011;63123;50.906;4.198;2023-04-01T22:35:11;4.55;;;4.03;;
74616;SDS011;63123;50.906;4.198;2023-04-01T22:40:39;5.10;;;4.60;;
74616;SDS011;63123;50.906;4.198;2023-04-01T22:48:51;4.57;;;4.18;;
74616;SDS011;63123;50.906;4.198;2023-04-01T22:51:42;4.28;;;3.95;;
74616;SDS011;63123;50.906;4.198;2023-04-01T22:54:19;4.03;;;3.63;;
74616;SDS011;63123;50.906;4.198;2023-04-01T22:56:57;3.90;;;3.60;;
74616;SDS011;63123;50.906;4.198;2023-04-01T22:59:29;4.60;;;4.22;;
74616;SDS011;63123;50.906;4.198;2023-04-01T23:02:14;4.50;;;4.20;;
74616;SDS011;63123;50.906;4.198;2023-04-01T23:05:10;4.43;;;3.92;;
74616;SDS011;63123;50.906;4.198;2023-04-01T23:13:22;3.92;;;3.63;;
74616;SDS011;63123;50.906;4.198;2023-04-01T23:15:54;4.20;;;3.80;;
74616;SDS011;63123;50.906;4.198;2023-04-01T23:18:22;4.22;;;3.92;;
74616;SDS011;63123;50.906;4.198;2023-04-01T23:21:13;3.50;;;3.20;;
74616;SDS011;63123;50.906;4.198;2023-04-01T23:23:49;3.80;;;3.50;;
74616;SDS011;63123;50.906;4.198;2023-04-01T23:26:21;3.45;;;3.25;;
74616;SDS011;63123;50.906;4.198;2023-04-01T23:29:01;4.00;;;3.70;;
74616;SDS011;63123;50.906;4.198;2023-04-01T23:31:32;3.88;;;3.58;;
74616;SDS011;63123;50.906;4.198;2023-04-01T23:34:00;3.75;;;3.50;;
74616;SDS011;63123;50.906;4.198;2023-04-01T23:36:30;3.90;;;3.60;;
74616;SDS011;63123;50.906;4.198;2023-04-01T23:39:03;3.83;;;3.53;;
74616;SDS011;63123;50.906;4.198;2023-04-01T23:41:31;3.65;;;3.35;;
74616;SDS011;63123;50.906;4.198;2023-04-01T23:44:05;4.50;;;3.70;;
74616;SDS011;63123;50.906;4.198;2023-04-01T23:46:36;4.05;;;3.75;;
74616;SDS011;63123;50.906;4.198;2023-04-01T23:49:04;3.80;;;3.50;;
74616;SDS011;63123;50.906;4.198;2023-04-01T23:51:46;4.10;;;3.80;;
74616;SDS011;63123;50.906;4.198;2023-04-01T23:56:59;4.78;;;4.38;;
74616;SDS011;63123;50.906;4.198;2023-04-01T23:59:32;5.18;;;4.75;;
